createdAt,value
2022-12-18T00:00:50.827Z,25.1429
2022-12-18T00:01:50.954Z,26.9286
2022-12-18T00:02:51.021Z,24.7143
2022-12-18T00:03:51.012Z,25.4286
2022-12-18T00:04:50.960Z,26.5
2022-12-18T00:05:50.998Z,26.9286
2022-12-18T00:06:51.028Z,26.2143
2022-12-18T00:07:51.053Z,24.8571
2022-12-18T00:08:51.087Z,27.3571
2022-12-18T00:09:51.125Z,26.1429
2022-12-18T00:10:51.155Z,25.2143
2022-12-18T00:11:51.188Z,24.8571
2022-12-18T00:12:51.204Z,24.7143
2022-12-18T00:13:51.240Z,26.7143
2022-12-18T00:14:51.268Z,24.3571
2022-12-18T00:15:51.323Z,23.9286
2022-12-18T00:16:51.329Z,23.8571
2022-12-18T00:17:51.365Z,24.5
2022-12-18T00:18:51.397Z,24.8571
2022-12-18T00:19:51.428Z,23.9286
2022-12-18T00:20:51.464Z,24.2143
2022-12-18T00:21:51.502Z,25.1429
2022-12-18T00:22:51.529Z,25.7143
2022-12-18T00:23:51.567Z,24.2143
2022-12-18T00:24:51.600Z,23.9286
2022-12-18T00:25:51.631Z,23
2022-12-18T00:26:51.655Z,22.9286
2022-12-18T00:27:51.697Z,22.1429
2022-12-18T00:28:51.721Z,22.2143
2022-12-18T00:29:51.767Z,21.1429
2022-12-18T00:30:51.795Z,21.5
2022-12-18T00:31:51.933Z,22.4286
2022-12-18T00:32:51.857Z,21.9286
2022-12-18T00:33:53.449Z,22.5
2022-12-18T00:34:51.920Z,23.1429
2022-12-18T00:35:51.959Z,21.8571
2022-12-18T00:36:51.991Z,22.4286
2022-12-18T00:37:52.016Z,22.4286
2022-12-18T00:38:52.052Z,22.6429
2022-12-18T00:39:52.084Z,23.3571
2022-12-18T00:40:52.122Z,23.3571
2022-12-18T00:41:52.150Z,23.5
2022-12-18T00:42:52.170Z,23.5
2022-12-18T00:43:52.207Z,23.6429
2022-12-18T00:44:52.237Z,24.8571
2022-12-18T00:45:52.315Z,23.7143
2022-12-18T00:46:52.297Z,23.3571
2022-12-18T00:47:52.333Z,24.7143
2022-12-18T00:48:52.367Z,23.6429
2022-12-18T00:49:52.403Z,23
2022-12-18T00:50:52.419Z,23.1429
2022-12-18T00:51:52.456Z,23.1429
2022-12-18T00:52:52.485Z,23.1429
2022-12-18T00:53:52.517Z,22.8571
2022-12-18T00:54:52.545Z,22.6429
2022-12-18T00:55:52.570Z,21.5
2022-12-18T00:56:52.598Z,22.8571
2022-12-18T00:57:52.623Z,22.6429
2022-12-18T00:58:52.652Z,23.5
2022-12-18T00:59:52.686Z,22.6429
2022-12-18T01:00:52.800Z,23.6429
2022-12-18T01:01:52.919Z,23.1429
2022-12-18T01:02:52.928Z,22.6429
2022-12-18T01:03:52.815Z,23.5
2022-12-18T01:04:52.847Z,23.3571
2022-12-18T01:05:52.883Z,23
2022-12-18T01:06:52.912Z,25.4286
2022-12-18T01:07:52.924Z,24.2143
2022-12-18T01:08:52.957Z,22.5
2022-12-18T01:09:52.983Z,23.2143
2022-12-18T01:10:53.017Z,24.6429
2022-12-18T01:11:53.043Z,23.5
2022-12-18T01:12:53.066Z,23.6429
2022-12-18T01:13:53.100Z,23.7143
2022-12-18T01:14:53.127Z,23.2143
2022-12-18T01:15:53.171Z,23.4286
2022-12-18T01:16:53.234Z,23.3571
2022-12-18T01:17:53.243Z,24.6429
2022-12-18T01:18:53.289Z,23.9286
2022-12-18T01:19:53.311Z,22.5
2022-12-18T01:20:53.340Z,23.4286
2022-12-18T01:21:53.374Z,22.8571
2022-12-18T01:22:53.396Z,21.9286
2022-12-18T01:23:53.427Z,23.5
2022-12-18T01:24:53.457Z,22.7143
2022-12-18T01:25:53.490Z,24.3571
2022-12-18T01:26:53.527Z,23.1429
2022-12-18T01:27:53.554Z,22.7143
2022-12-18T01:28:53.591Z,23.5
2022-12-18T01:29:53.623Z,23.8571
2022-12-18T01:30:53.658Z,22.9286
2022-12-18T01:31:53.797Z,23.1429
2022-12-18T01:32:53.718Z,23.4286
2022-12-18T01:33:53.752Z,22.7143
2022-12-18T01:34:53.780Z,21
2022-12-18T01:35:53.812Z,23.1429
2022-12-18T01:36:53.841Z,22.9286
2022-12-18T01:37:53.875Z,22.8571
2022-12-18T01:38:53.905Z,23.3571
2022-12-18T01:39:53.941Z,24
2022-12-18T01:40:53.964Z,23.6429
2022-12-18T01:41:54.004Z,23.5
2022-12-18T01:42:54.036Z,24
2022-12-18T01:43:54.062Z,22.7143
2022-12-18T01:44:54.102Z,22.5
2022-12-18T01:45:54.196Z,23.5
2022-12-18T01:46:54.171Z,22.7143
2022-12-18T01:47:54.200Z,24.5
2022-12-18T01:48:54.248Z,21.3571
2022-12-18T01:49:54.281Z,22.9286
2022-12-18T01:50:54.314Z,22.5
2022-12-18T01:51:54.355Z,21.4286
2022-12-18T01:52:54.380Z,20.2143
2022-12-18T01:53:54.415Z,22.5
2022-12-18T01:54:54.438Z,22
2022-12-18T01:55:54.472Z,20.7143
2022-12-18T01:56:54.512Z,22.2143
2022-12-18T01:57:54.538Z,23.1429
2022-12-18T01:58:54.571Z,21.2143
2022-12-18T01:59:54.605Z,22.2143
2022-12-18T02:00:54.684Z,22.2143
2022-12-18T02:01:54.808Z,23.1429
2022-12-18T02:02:54.845Z,23.8571
2022-12-18T02:03:54.715Z,22.9286
2022-12-18T02:04:54.736Z,23.2143
2022-12-18T02:05:54.767Z,22.7143
2022-12-18T02:06:54.795Z,22.6429
2022-12-18T02:07:54.835Z,21.4286
2022-12-18T02:08:54.857Z,21.8571
2022-12-18T02:09:54.894Z,21.5
2022-12-18T02:10:54.912Z,21.1429
2022-12-18T02:11:54.952Z,22
2022-12-18T02:12:54.989Z,21.5
2022-12-18T02:13:55.017Z,20.8571
2022-12-18T02:14:55.050Z,21.5
2022-12-18T02:15:55.080Z,21.1429
2022-12-18T02:16:55.250Z,20.2143
2022-12-18T02:17:55.135Z,21.2143
2022-12-18T02:18:55.179Z,20.5
2022-12-18T02:19:55.197Z,22.7143
2022-12-18T02:20:55.231Z,20.3571
2022-12-18T02:21:55.254Z,22
2022-12-18T02:22:55.282Z,22.6429
2022-12-18T02:23:55.314Z,21.2143
2022-12-18T02:24:55.351Z,21.7143
2022-12-18T02:25:55.394Z,21.4286
2022-12-18T02:26:55.412Z,22.6429
2022-12-18T02:27:55.438Z,22.1429
2022-12-18T02:28:55.463Z,22
2022-12-18T02:29:58.485Z,22.7143
2022-12-18T02:30:55.648Z,22.9286
2022-12-18T02:31:55.552Z,23.6429
2022-12-18T02:32:55.581Z,22.7143
2022-12-18T02:33:55.612Z,22
2022-12-18T02:34:55.643Z,21.2143
2022-12-18T02:35:55.676Z,22.1429
2022-12-18T02:36:55.718Z,21.7143
2022-12-18T02:37:55.737Z,22
2022-12-18T02:38:55.771Z,21.5
2022-12-18T02:39:55.808Z,20.6429
2022-12-18T02:40:55.837Z,20.7143
2022-12-18T02:41:55.866Z,19.7143
2022-12-18T02:42:55.901Z,22.2143
2022-12-18T02:43:55.926Z,20.7143
2022-12-18T02:44:55.958Z,22.7143
2022-12-18T02:45:56.088Z,21.6429
2022-12-18T02:46:56.020Z,22.6429
2022-12-18T02:47:56.060Z,21.3571
2022-12-18T02:48:56.083Z,21.4286
2022-12-18T02:49:56.110Z,22
2022-12-18T02:50:56.142Z,20.8571
2022-12-18T02:51:56.175Z,20.6429
2022-12-18T02:52:56.207Z,20.4286
2022-12-18T02:53:56.227Z,22.2143
2022-12-18T02:54:56.264Z,21.8571
2022-12-18T02:55:56.300Z,21.2143
2022-12-18T02:56:56.330Z,22.3571
2022-12-18T02:57:56.362Z,20.6429
2022-12-18T02:58:56.384Z,19.7143
2022-12-18T02:59:56.419Z,21.1429
2022-12-18T03:00:56.537Z,20.4286
2022-12-18T03:01:56.684Z,22
2022-12-18T03:02:56.601Z,20.9286
2022-12-18T03:03:56.539Z,21.2143
2022-12-18T03:04:56.564Z,21.3571
2022-12-18T03:05:56.587Z,21.1429
2022-12-18T03:06:56.630Z,20.9286
2022-12-18T03:07:56.650Z,21.6429
2022-12-18T03:08:56.691Z,21.5
2022-12-18T03:09:56.727Z,20.4286
2022-12-18T03:10:56.760Z,21.5
2022-12-18T03:11:56.785Z,21.6429
2022-12-18T03:12:56.823Z,21.6429
2022-12-18T03:13:56.858Z,20.7143
2022-12-18T03:14:56.874Z,21.7143
2022-12-18T03:15:56.903Z,22
2022-12-18T03:16:56.976Z,21.8571
2022-12-18T03:17:56.968Z,21.8571
2022-12-18T03:18:57.010Z,20.6429
2022-12-18T03:19:57.036Z,21
2022-12-18T03:20:57.072Z,22.1429
2022-12-18T03:21:57.104Z,22
2022-12-18T03:22:57.139Z,22
2022-12-18T03:23:57.181Z,20.3571
2022-12-18T03:24:57.203Z,22
2022-12-18T03:25:57.239Z,21.4286
2022-12-18T03:26:57.275Z,22.7143
2022-12-18T03:27:57.298Z,21.4286
2022-12-18T03:28:57.330Z,21.4286
2022-12-18T03:29:57.373Z,22.1429
2022-12-18T03:30:57.467Z,22.9286
2022-12-18T03:31:57.428Z,23
2022-12-18T03:33:00.233Z,21.2143
2022-12-18T03:33:57.496Z,22.2143
2022-12-18T03:34:57.520Z,21.4286
2022-12-18T03:35:57.562Z,21.1429
2022-12-18T03:36:57.585Z,21
2022-12-18T03:37:57.613Z,22.1429
2022-12-18T03:38:57.631Z,22.1429
2022-12-18T03:39:57.672Z,22.5
2022-12-18T03:40:57.698Z,23.4286
2022-12-18T03:41:57.735Z,24.1429
2022-12-18T03:42:57.761Z,23.6429
2022-12-18T03:43:57.787Z,25
2022-12-18T03:44:57.821Z,23.9286
2022-12-18T03:45:57.920Z,23.3571
2022-12-18T03:46:57.867Z,23.5
2022-12-18T03:47:57.898Z,24.8571
2022-12-18T03:48:57.924Z,23.9286
2022-12-18T03:49:57.949Z,25.4286
2022-12-18T03:50:57.984Z,23.6429
2022-12-18T03:51:58.023Z,24.5
2022-12-18T03:52:58.060Z,23.5
2022-12-18T03:53:58.085Z,24.4286
2022-12-18T03:54:58.125Z,24.1429
2022-12-18T03:55:58.205Z,24.8571
2022-12-18T03:56:58.183Z,23.5
2022-12-18T03:57:58.224Z,25.4286
2022-12-18T03:58:58.246Z,24.7143
2022-12-18T03:59:58.278Z,26.2143
2022-12-18T04:00:58.326Z,24.4286
2022-12-18T04:01:58.505Z,24.8571
2022-12-18T04:02:58.375Z,24.2143
2022-12-18T04:03:58.425Z,24.1429
2022-12-18T04:04:58.438Z,24.5
2022-12-18T04:05:58.475Z,25.1429
2022-12-18T04:06:58.498Z,24.7143
2022-12-18T04:07:58.528Z,25.8571
2022-12-18T04:08:58.552Z,22.4286
2022-12-18T04:09:58.589Z,25.3571
2022-12-18T04:10:58.625Z,24.1429
2022-12-18T04:11:58.648Z,24.2143
2022-12-18T04:12:58.680Z,26
2022-12-18T04:13:58.712Z,25.5
2022-12-18T04:14:58.746Z,26.3571
2022-12-18T04:15:58.828Z,23.9286
2022-12-18T04:16:58.816Z,25.1429
2022-12-18T04:17:58.845Z,25
2022-12-18T04:18:58.890Z,26.2143
2022-12-18T04:19:58.917Z,26.4286
2022-12-18T04:20:58.944Z,26.2143
2022-12-18T04:21:58.981Z,26.6429
2022-12-18T04:22:59.011Z,26.4286
2022-12-18T04:23:59.044Z,25.5
2022-12-18T04:24:59.078Z,26.4286
2022-12-18T04:25:59.112Z,25.3571
2022-12-18T04:26:59.136Z,24.7143
2022-12-18T04:27:59.169Z,26.4286
2022-12-18T04:28:59.201Z,26.1429
2022-12-18T04:29:59.230Z,25.2143
2022-12-18T04:30:59.320Z,24.9286
2022-12-18T04:31:59.300Z,26.5
2022-12-18T04:32:59.332Z,27.8571
2022-12-18T04:33:59.363Z,25.9286
2022-12-18T04:34:59.383Z,25.9286
2022-12-18T04:35:59.416Z,24.7143
2022-12-18T04:36:59.446Z,25.6429
2022-12-18T04:37:59.468Z,27
2022-12-18T04:38:59.498Z,25.9286
2022-12-18T04:39:59.541Z,26.1429
2022-12-18T04:40:59.575Z,26.2143
2022-12-18T04:41:59.600Z,26.2143
2022-12-18T04:42:59.648Z,25.8571
2022-12-18T04:43:59.661Z,26.2143
2022-12-18T04:44:59.690Z,26.5
2022-12-18T04:45:59.777Z,25.5
2022-12-18T04:46:59.744Z,25.4286
2022-12-18T04:47:59.775Z,25.5
2022-12-18T04:48:59.806Z,25.6429
2022-12-18T04:49:59.835Z,24
2022-12-18T04:50:59.867Z,23.9286
2022-12-18T04:51:59.896Z,23.1429
2022-12-18T04:52:59.933Z,24.8571
2022-12-18T04:53:59.975Z,25.3571
2022-12-18T04:54:59.995Z,25
2022-12-18T04:56:00.025Z,25.2143
2022-12-18T04:57:00.068Z,24.9286
2022-12-18T04:58:00.099Z,24.7143
2022-12-18T04:59:00.130Z,24.3571
2022-12-18T05:00:00.158Z,25.3571
2022-12-18T05:01:00.199Z,23
2022-12-18T05:02:00.365Z,25.5
2022-12-18T05:03:00.289Z,22.8571
2022-12-18T05:04:00.349Z,24.5
2022-12-18T05:05:00.316Z,23.7143
2022-12-18T05:06:00.357Z,24.7143
2022-12-18T05:07:00.379Z,22.6429
2022-12-18T05:08:00.415Z,23.2143
2022-12-18T05:09:00.448Z,23.4286
2022-12-18T05:10:00.484Z,22
2022-12-18T05:11:00.514Z,22.5
2022-12-18T05:12:00.537Z,23.2143
2022-12-18T05:13:01.424Z,20.8571
2022-12-18T05:14:00.603Z,21.3571
2022-12-18T05:15:00.635Z,21.4286
2022-12-18T05:16:00.785Z,21.8571
2022-12-18T05:17:01.347Z,21.2143
2022-12-18T05:18:00.732Z,22.9286
2022-12-18T05:19:00.759Z,21.6429
2022-12-18T05:20:00.793Z,20.9286
2022-12-18T05:21:00.826Z,21.7143
2022-12-18T05:22:00.861Z,20.6429
2022-12-18T05:23:00.880Z,21.8571
2022-12-18T05:24:00.912Z,21.6429
2022-12-18T05:25:00.943Z,22
2022-12-18T05:26:00.967Z,21.4286
2022-12-18T05:27:01.009Z,21.6429
2022-12-18T05:28:01.043Z,21.6429
2022-12-18T05:29:01.080Z,21.7143
2022-12-18T05:30:01.122Z,22.7143
2022-12-18T05:31:01.213Z,22.3571
2022-12-18T05:32:01.175Z,22.3571
2022-12-18T05:33:01.200Z,22.3571
2022-12-18T05:34:01.241Z,21.6429
2022-12-18T05:35:01.265Z,22.1429
2022-12-18T05:36:01.292Z,22.8571
2022-12-18T05:37:01.317Z,22.1429
2022-12-18T05:38:01.350Z,21.7143
2022-12-18T05:39:01.385Z,21.7143
2022-12-18T05:40:01.415Z,21.3571
2022-12-18T05:41:01.438Z,23.7143
2022-12-18T05:42:01.466Z,21.9286
2022-12-18T05:43:01.505Z,20.6429
2022-12-18T05:44:01.534Z,21.4286
2022-12-18T05:45:01.581Z,20.8571
2022-12-18T05:46:01.610Z,20.8571
2022-12-18T05:47:01.669Z,20.7143
2022-12-18T05:48:01.670Z,19.5
2022-12-18T05:49:01.713Z,19.1429
2022-12-18T05:50:01.731Z,20.2143
2022-12-18T05:51:01.765Z,19.9286
2022-12-18T05:52:01.801Z,20.9286
2022-12-18T05:53:01.835Z,19.3571
2022-12-18T05:54:01.859Z,20.2143
2022-12-18T05:55:01.895Z,19.4286
2022-12-18T05:56:01.913Z,20.9286
2022-12-18T05:57:01.946Z,19.8571
2022-12-18T05:58:01.976Z,19.4286
2022-12-18T05:59:02.015Z,20.7143
2022-12-18T06:00:02.043Z,19.5
2022-12-18T06:01:02.073Z,21.1429
2022-12-18T06:02:02.230Z,21.4286
2022-12-18T06:03:02.261Z,20.5
2022-12-18T06:04:02.219Z,19.9286
2022-12-18T06:05:02.209Z,20.9286
2022-12-18T06:06:02.239Z,20.4286
2022-12-18T06:07:02.268Z,19.9286
2022-12-18T06:08:02.301Z,20.1429
2022-12-18T06:09:02.336Z,19.3571
2022-12-18T06:10:02.364Z,19.7143
2022-12-18T06:11:02.382Z,19.4286
2022-12-18T06:12:02.420Z,20.8571
2022-12-18T06:13:02.446Z,20.6429
2022-12-18T06:14:02.470Z,19.5
2022-12-18T06:15:02.499Z,20.4286
2022-12-18T06:16:02.585Z,19.7143
2022-12-18T06:17:02.574Z,19.6429
2022-12-18T06:18:02.594Z,20.3571
2022-12-18T06:19:02.624Z,20.4286
2022-12-18T06:20:02.666Z,21
2022-12-18T06:21:02.689Z,21
2022-12-18T06:22:02.729Z,21.7143
2022-12-18T06:23:02.757Z,22
2022-12-18T06:24:02.785Z,22.1429
2022-12-18T06:25:02.816Z,20.7143
2022-12-18T06:26:02.846Z,21.2143
2022-12-18T06:27:02.868Z,22.3571
2022-12-18T06:28:02.898Z,21
2022-12-18T06:29:02.934Z,20.9286
2022-12-18T06:30:02.961Z,22.7143
2022-12-18T06:31:03.019Z,22.3571
2022-12-18T06:32:03.101Z,21.5
2022-12-18T06:33:03.066Z,21.7143
2022-12-18T06:34:03.111Z,21.2143
2022-12-18T06:35:03.141Z,21.4286
2022-12-18T06:36:03.166Z,22.2143
2022-12-18T06:37:03.197Z,20.3571
2022-12-18T06:38:03.231Z,21.5
2022-12-18T06:39:03.265Z,22.3571
2022-12-18T06:40:03.293Z,21.4286
2022-12-18T06:41:03.318Z,21.9286
2022-12-18T06:42:03.354Z,20.6429
2022-12-18T06:43:03.402Z,21.5
2022-12-18T06:44:03.411Z,20.4286
2022-12-18T06:45:03.434Z,20.1429
2022-12-18T06:46:03.532Z,20.7143
2022-12-18T06:47:03.504Z,22
2022-12-18T06:48:03.528Z,20.9286
2022-12-18T06:49:03.559Z,21
2022-12-18T06:50:03.591Z,21.5
2022-12-18T06:51:03.625Z,20.3571
2022-12-18T06:52:03.656Z,21.1429
2022-12-18T06:53:03.676Z,20
2022-12-18T06:54:03.716Z,21.1429
2022-12-18T06:55:03.739Z,20.5
2022-12-18T06:56:09.189Z,21.8571
2022-12-18T06:57:03.810Z,19.5
2022-12-18T06:58:03.843Z,20.7143
2022-12-18T06:59:03.857Z,21.3571
2022-12-18T07:00:03.887Z,20
2022-12-18T07:01:03.998Z,19.8571
2022-12-18T07:02:04.021Z,20.1429
2022-12-18T07:03:04.070Z,20.3571
2022-12-18T07:04:04.003Z,20.1429
2022-12-18T07:05:10.248Z,20.2143
2022-12-18T07:06:04.069Z,19.8571
2022-12-18T07:07:04.105Z,21.3571
2022-12-18T07:08:04.133Z,19.9286
2022-12-18T07:09:04.163Z,21
2022-12-18T07:10:04.193Z,20.3571
2022-12-18T07:11:04.215Z,21.6429
2022-12-18T07:12:04.252Z,20.6429
2022-12-18T07:13:04.273Z,20.5
2022-12-18T07:14:04.304Z,21.2143
2022-12-18T07:15:04.329Z,20.6429
2022-12-18T07:16:04.456Z,20.6429
2022-12-18T07:17:04.470Z,20.1429
2022-12-18T07:18:04.427Z,20.6429
2022-12-18T07:19:04.458Z,20.1429
2022-12-18T07:20:04.487Z,19.9286
2022-12-18T07:21:04.520Z,20.8571
2022-12-18T07:22:04.564Z,20
2022-12-18T07:23:04.580Z,20.4286
2022-12-18T07:24:04.613Z,19.2143
2022-12-18T07:25:04.653Z,20.4286
2022-12-18T07:26:04.673Z,20.4286
2022-12-18T07:27:04.701Z,21.5
2022-12-18T07:28:04.741Z,21.1429
2022-12-18T07:29:04.765Z,20.1429
2022-12-18T07:30:04.799Z,19.9286
2022-12-18T07:31:04.867Z,21.8571
2022-12-18T07:32:04.911Z,21.8571
2022-12-18T07:33:04.891Z,21.7143
2022-12-18T07:34:04.927Z,20.4286
2022-12-18T07:35:04.961Z,21.4286
2022-12-18T07:36:05.005Z,21.4286
2022-12-18T07:37:05.020Z,22.1429
2022-12-18T07:38:05.043Z,22
2022-12-18T07:39:05.074Z,21.9286
2022-12-18T07:40:05.112Z,21.6429
2022-12-18T07:41:05.875Z,21.7143
2022-12-18T07:42:05.174Z,23.4286
2022-12-18T07:43:05.211Z,23.4286
2022-12-18T07:44:05.242Z,23.4286
2022-12-18T07:45:05.263Z,22.4286
2022-12-18T07:46:05.406Z,22.2143
2022-12-18T07:47:09.013Z,22.7143
2022-12-18T07:48:05.373Z,21.8571
2022-12-18T07:49:05.388Z,22.9286
2022-12-18T07:50:05.420Z,21.9286
2022-12-18T07:51:05.448Z,22.9286
2022-12-18T07:52:05.478Z,24.2143
2022-12-18T07:53:05.503Z,23.3571
2022-12-18T07:54:05.534Z,24.4286
2022-12-18T07:55:05.565Z,22.7143
2022-12-18T07:56:26.529Z,23.4286
2022-12-18T07:57:16.363Z,22.5
2022-12-18T07:58:05.650Z,23.1429
2022-12-18T07:59:05.682Z,22.5
2022-12-18T08:00:05.716Z,25
2022-12-18T08:01:05.783Z,23
2022-12-18T08:02:05.900Z,23.5
2022-12-18T08:03:05.901Z,21.8571
2022-12-18T08:04:05.838Z,22.7143
2022-12-18T08:05:05.873Z,22.6429
2022-12-18T08:06:05.895Z,21.6429
2022-12-18T08:07:05.926Z,22.5
2022-12-18T08:08:05.959Z,21.2143
2022-12-18T08:09:05.993Z,22.7143
2022-12-18T08:10:06.027Z,23.2143
2022-12-18T08:11:06.051Z,23.2143
2022-12-18T08:12:06.086Z,22.6429
2022-12-18T08:13:06.114Z,21.9286
2022-12-18T08:14:06.146Z,21.7143
2022-12-18T08:15:06.183Z,21.5
2022-12-18T08:16:06.206Z,21.4286
2022-12-18T08:17:06.257Z,22.9286
2022-12-18T08:18:10.083Z,22.7143
2022-12-18T08:19:06.288Z,22.8571
2022-12-18T08:20:06.321Z,22
2022-12-18T08:21:06.349Z,22.4286
2022-12-18T08:22:06.376Z,21.6429
2022-12-18T08:23:06.416Z,22
2022-12-18T08:24:06.429Z,22.1429
2022-12-18T08:25:06.463Z,21.7143
2022-12-18T08:26:06.493Z,21.7143
2022-12-18T08:27:28.864Z,22.4286
2022-12-18T08:28:06.555Z,22.4286
2022-12-18T08:29:06.575Z,23
2022-12-18T08:30:06.627Z,23.2143
2022-12-18T08:31:06.701Z,23.9286
2022-12-18T08:32:06.739Z,24.4286
2022-12-18T08:33:06.687Z,24
2022-12-18T08:34:06.710Z,23
2022-12-18T08:35:06.761Z,25
2022-12-18T08:36:06.770Z,23.6429
2022-12-18T08:37:06.797Z,26.1429
2022-12-18T08:38:06.831Z,26.1429
2022-12-18T08:39:06.867Z,25.4286
2022-12-18T08:40:06.887Z,24.8571
2022-12-18T08:41:06.922Z,26.4286
2022-12-18T08:42:10.229Z,27.3571
2022-12-18T08:43:06.985Z,28.2143
2022-12-18T08:44:07.016Z,29.3571
2022-12-18T08:45:07.052Z,28.4286
2022-12-18T08:46:07.162Z,28.5
2022-12-18T08:47:07.117Z,29.2143
2022-12-18T08:48:07.138Z,30
2022-12-18T08:49:07.174Z,28.1429
2022-12-18T08:50:07.208Z,29.2143
2022-12-18T08:51:07.231Z,30.5
2022-12-18T08:52:07.258Z,31.6429
2022-12-18T08:53:07.288Z,31.1429
2022-12-18T08:54:07.315Z,30.4286
2022-12-18T08:55:07.360Z,32.2143
2022-12-18T08:56:07.387Z,31.3571
2022-12-18T08:57:07.418Z,29.4286
2022-12-18T08:58:07.442Z,31.4286
2022-12-18T08:59:07.467Z,31.2143
2022-12-18T09:00:07.509Z,30.8571
2022-12-18T09:01:07.610Z,30.9286
2022-12-18T09:02:07.768Z,29.9286
2022-12-18T09:03:07.650Z,30.3571
2022-12-18T09:04:07.647Z,30.3571
2022-12-18T09:05:07.670Z,29.1429
2022-12-18T09:06:07.698Z,28.8571
2022-12-18T09:07:07.737Z,28.9286
2022-12-18T09:08:07.768Z,28.8571
2022-12-18T09:09:07.797Z,29
2022-12-18T09:10:07.821Z,28.5
2022-12-18T09:11:07.854Z,29.5
2022-12-18T09:12:07.883Z,27.8571
2022-12-18T09:13:07.913Z,28.4286
2022-12-18T09:14:07.947Z,27
2022-12-18T09:15:07.978Z,27
2022-12-18T09:16:08.004Z,26.4286
2022-12-18T09:17:08.088Z,26.5
2022-12-18T09:18:08.070Z,26.3571
2022-12-18T09:19:08.097Z,25.7143
2022-12-18T09:20:08.135Z,26.6429
2022-12-18T09:21:08.204Z,26.6429
2022-12-18T09:22:08.206Z,27
2022-12-18T09:23:08.241Z,26.4286
2022-12-18T09:24:09.124Z,25.9286
2022-12-18T09:25:08.305Z,25.5
2022-12-18T09:26:08.344Z,26.2143
2022-12-18T09:27:08.367Z,26
2022-12-18T09:28:08.395Z,24.9286
2022-12-18T09:29:08.451Z,24.5
2022-12-18T09:30:08.454Z,24.9286
2022-12-18T09:31:08.640Z,24.5
2022-12-18T09:32:08.522Z,23.9286
2022-12-18T09:33:08.561Z,24.2143
2022-12-18T09:34:08.597Z,24.3571
2022-12-18T09:35:08.624Z,24.5
2022-12-18T09:36:08.659Z,23.5
2022-12-18T09:37:08.680Z,23.4286
2022-12-18T09:38:08.712Z,23
2022-12-18T09:39:09.137Z,23.6429
2022-12-18T09:40:08.768Z,23.9286
2022-12-18T09:41:08.806Z,23
2022-12-18T09:42:08.835Z,22.5
2022-12-18T09:43:09.034Z,23.4286
2022-12-18T09:44:08.914Z,23.7143
2022-12-18T09:45:08.962Z,23.6429
2022-12-18T09:46:09.053Z,22.3571
2022-12-18T09:47:08.980Z,23.5
2022-12-18T09:48:09.021Z,23.3571
2022-12-18T09:49:09.053Z,23.6429
2022-12-18T09:50:14.283Z,23
2022-12-18T09:51:09.117Z,24
2022-12-18T09:52:09.137Z,23.2143
2022-12-18T09:53:09.173Z,23.6429
2022-12-18T09:54:09.207Z,23.8571
2022-12-18T09:55:09.242Z,23.3571
2022-12-18T09:56:09.294Z,23.4286
2022-12-18T09:57:09.302Z,23.5
2022-12-18T09:58:09.329Z,22.9286
2022-12-18T09:59:09.359Z,24.1429
2022-12-18T10:00:09.395Z,22.7143
2022-12-18T10:01:09.502Z,22.2143
2022-12-18T10:02:09.544Z,22.1429
2022-12-18T10:03:09.714Z,22.8571
2022-12-18T10:04:09.587Z,22.7143
2022-12-18T10:05:09.554Z,20.8571
2022-12-18T10:06:09.601Z,21.9286
2022-12-18T10:07:09.640Z,22.2143
2022-12-18T10:08:09.673Z,22.3571
2022-12-18T10:09:09.699Z,21.6429
2022-12-18T10:10:09.722Z,22
2022-12-18T10:11:09.781Z,21
2022-12-18T10:12:09.776Z,22.4286
2022-12-18T10:13:09.808Z,21.5
2022-12-18T10:14:09.846Z,22.2143
2022-12-18T10:15:09.867Z,21.4286
2022-12-18T10:16:09.951Z,22.9286
2022-12-18T10:17:09.931Z,20.9286
2022-12-18T10:18:09.959Z,21.4286
2022-12-18T10:19:09.986Z,22.7143
2022-12-18T10:20:10.015Z,22.4286
2022-12-18T10:21:10.053Z,22.5
2022-12-18T10:22:10.087Z,20.3571
2022-12-18T10:23:10.119Z,21.2143
2022-12-18T10:24:10.154Z,21
2022-12-18T10:25:10.178Z,21.1429
2022-12-18T10:26:10.210Z,21.8571
2022-12-18T10:27:10.238Z,20.5
2022-12-18T10:28:10.274Z,21.6429
2022-12-18T10:29:10.301Z,22.5
2022-12-18T10:30:10.341Z,21.2143
2022-12-18T10:31:10.457Z,21.1429
2022-12-18T10:32:10.412Z,21.2143
2022-12-18T10:33:10.456Z,21.5
2022-12-18T10:34:10.480Z,21.3571
2022-12-18T10:35:10.518Z,22.4286
2022-12-18T10:36:10.547Z,21.4286
2022-12-18T10:37:10.575Z,22.9286
2022-12-18T10:38:10.607Z,21.9286
2022-12-18T10:39:10.647Z,22.2143
2022-12-18T10:40:10.671Z,22.7143
2022-12-18T10:41:10.699Z,22.3571
2022-12-18T10:42:10.733Z,23.4286
2022-12-18T10:43:10.783Z,22.7143
2022-12-18T10:44:10.798Z,22.5
2022-12-18T10:45:10.834Z,22.2143
2022-12-18T10:46:10.915Z,21.2143
2022-12-18T10:47:12.105Z,22.3571
2022-12-18T10:48:10.934Z,22.8571
2022-12-18T10:49:10.956Z,24.3571
2022-12-18T10:50:10.989Z,23.3571
2022-12-18T10:51:13.116Z,23.4286
2022-12-18T10:52:11.050Z,23.8571
2022-12-18T10:53:11.092Z,24.4286
2022-12-18T10:54:11.112Z,23.3571
2022-12-18T10:55:11.150Z,22.7143
2022-12-18T10:56:11.186Z,22.5
2022-12-18T10:57:11.206Z,24.7143
2022-12-18T10:58:11.242Z,22.7143
2022-12-18T10:59:11.283Z,23.4286
2022-12-18T11:00:11.310Z,22
2022-12-18T11:01:11.344Z,23.7143
2022-12-18T11:02:11.524Z,22.3571
2022-12-18T11:03:11.573Z,23.7143
2022-12-18T11:04:11.436Z,22.3571
2022-12-18T11:05:11.470Z,23.4286
2022-12-18T11:06:11.495Z,22.7143
2022-12-18T11:07:11.530Z,22.9286
2022-12-18T11:08:11.554Z,22.7143
2022-12-18T11:09:13.836Z,22.1429
2022-12-18T11:10:11.621Z,20.7143
2022-12-18T11:11:11.648Z,23.1429
2022-12-18T11:12:11.685Z,21.7143
2022-12-18T11:13:11.735Z,22.9286
2022-12-18T11:14:11.755Z,22.9286
2022-12-18T11:15:11.792Z,21.4286
2022-12-18T11:16:11.852Z,22.1429
2022-12-18T11:17:26.480Z,22.9286
2022-12-18T11:18:11.888Z,22
2022-12-18T11:19:11.931Z,24
2022-12-18T11:20:11.953Z,23.6429
2022-12-18T11:21:11.984Z,22.6429
2022-12-18T11:22:12.004Z,22.3571
2022-12-18T11:23:12.047Z,21
2022-12-18T11:24:12.062Z,21.8571
2022-12-18T11:25:34.488Z,21.1429
2022-12-18T11:26:12.123Z,21.8571
2022-12-18T11:27:12.160Z,20.5
2022-12-18T11:28:12.181Z,21.2143
2022-12-18T11:29:12.223Z,20.5
2022-12-18T11:30:12.241Z,20.3571
2022-12-18T11:31:12.321Z,20.6429
2022-12-18T11:32:12.298Z,20.7143
2022-12-18T11:33:12.329Z,20.7143
2022-12-18T11:34:28.702Z,20.5
2022-12-18T11:35:12.391Z,21.3571
2022-12-18T11:36:12.412Z,20.3571
2022-12-18T11:37:12.440Z,19.6429
2022-12-18T11:38:12.472Z,19.4286
2022-12-18T11:39:12.497Z,20
2022-12-18T11:40:12.539Z,20.7143
2022-12-18T11:41:12.582Z,20.4286
2022-12-18T11:42:12.963Z,21.2143
2022-12-18T11:43:12.650Z,20.4286
2022-12-18T11:44:12.682Z,21.1429
2022-12-18T11:45:12.720Z,20.3571
2022-12-18T11:46:19.198Z,21.1429
2022-12-18T11:47:12.787Z,21
2022-12-18T11:48:12.805Z,20.5
2022-12-18T11:49:12.840Z,20.5
2022-12-18T11:50:12.874Z,20.5
2022-12-18T11:51:12.896Z,20.5
2022-12-18T11:52:12.924Z,20.7143
2022-12-18T11:53:12.953Z,21.3571
2022-12-18T11:54:12.993Z,20.5
2022-12-18T11:55:13.007Z,19.9286
2022-12-18T11:56:13.035Z,19.8571
2022-12-18T11:57:13.067Z,19.4286
2022-12-18T11:58:13.099Z,19.8571
2022-12-18T11:59:13.127Z,19.8571
2022-12-18T12:00:13.164Z,19.5
2022-12-18T12:01:13.195Z,20.1429
2022-12-18T12:02:13.436Z,19.7143
2022-12-18T12:03:13.323Z,19.4286
2022-12-18T12:04:13.447Z,20
2022-12-18T12:05:13.315Z,19.3571
2022-12-18T12:06:13.355Z,20.3571
2022-12-18T12:07:13.381Z,19.6429
2022-12-18T12:08:13.413Z,19.6429
2022-12-18T12:09:13.429Z,20.8571
2022-12-18T12:10:13.461Z,20.1429
2022-12-18T12:11:13.490Z,19.4286
2022-12-18T12:12:13.531Z,20.1429
2022-12-18T12:13:13.558Z,20.8571
2022-12-18T12:14:13.588Z,20.5
2022-12-18T12:15:13.629Z,20.2143
2022-12-18T12:16:13.748Z,20.2143
2022-12-18T12:17:13.686Z,21.4286
2022-12-18T12:18:13.718Z,20.6429
2022-12-18T12:19:13.753Z,20.6429
2022-12-18T12:20:13.839Z,20.3571
2022-12-18T12:21:13.819Z,20.2143
2022-12-18T12:22:13.841Z,19.9286
2022-12-18T12:23:13.876Z,20.7143
2022-12-18T12:24:13.894Z,19.2143
2022-12-18T12:25:13.923Z,19.4286